sensor_id;sensor_type;location;lat;lon;timestamp;P1;durP1;ratioP1;P2;durP2;ratioP2
72275;SDS011;61204;49.980;8.358;2024-02-28T00:01:21;19.40;;;12.82;;
72275;SDS011;61204;49.980;8.358;2024-02-28T00:03:48;25.10;;;13.00;;
72275;SDS011;61204;49.980;8.358;2024-02-28T00:06:16;21.08;;;12.35;;
72275;SDS011;61204;49.980;8.358;2024-02-28T00:08:42;19.98;;;12.52;;
72275;SDS011;61204;49.980;8.358;2024-02-28T00:11:07;23.95;;;13.30;;
72275;SDS011;61204;49.980;8.358;2024-02-28T00:13:35;20.45;;;13.43;;
72275;SDS011;61204;49.980;8.358;2024-02-28T00:16:01;24.17;;;13.75;;
72275;SDS011;61204;49.980;8.358;2024-02-28T00:18:28;26.98;;;15.70;;
72275;SDS011;61204;49.980;8.358;2024-02-28T00:20:56;24.50;;;13.43;;
72275;SDS011;61204;49.980;8.358;2024-02-28T00:23:21;23.50;;;13.90;;
72275;SDS011;61204;49.980;8.358;2024-02-28T00:25:47;22.75;;;13.88;;
72275;SDS011;61204;49.980;8.358;2024-02-28T00:28:15;27.13;;;14.27;;
72275;SDS011;61204;49.980;8.358;2024-02-28T00:30:40;26.90;;;15.15;;
72275;SDS011;61204;49.980;8.358;2024-02-28T00:33:06;24.58;;;13.85;;
72275;SDS011;61204;49.980;8.358;2024-02-28T00:35:32;26.00;;;15.07;;
72275;SDS011;61204;49.980;8.358;2024-02-28T00:37:59;31.40;;;16.15;;
72275;SDS011;61204;49.980;8.358;2024-02-28T00:40:25;31.50;;;15.88;;
72275;SDS011;61204;49.980;8.358;2024-02-28T00:42:51;31.05;;;15.35;;
72275;SDS011;61204;49.980;8.358;2024-02-28T00:45:17;30.80;;;16.35;;
72275;SDS011;61204;49.980;8.358;2024-02-28T00:47:42;35.22;;;17.70;;
72275;SDS011;61204;49.980;8.358;2024-02-28T00:50:08;26.48;;;14.63;;
72275;SDS011;61204;49.980;8.358;2024-02-28T00:52:36;28.77;;;15.82;;
72275;SDS011;61204;49.980;8.358;2024-02-28T00:55:02;26.85;;;15.13;;
72275;SDS011;61204;49.980;8.358;2024-02-28T00:57:30;25.83;;;14.73;;
72275;SDS011;61204;49.980;8.358;2024-02-28T00:59:56;25.60;;;16.25;;
72275;SDS011;61204;49.980;8.358;2024-02-28T01:02:22;24.33;;;14.45;;
72275;SDS011;61204;49.980;8.358;2024-02-28T01:04:47;27.20;;;15.70;;
72275;SDS011;61204;49.980;8.358;2024-02-28T01:07:13;32.90;;;17.25;;
72275;SDS011;61204;49.980;8.358;2024-02-28T01:09:41;29.75;;;16.13;;
72275;SDS011;61204;49.980;8.358;2024-02-28T01:12:07;28.77;;;16.52;;
72275;SDS011;61204;49.980;8.358;2024-02-28T01:14:33;29.73;;;16.15;;
72275;SDS011;61204;49.980;8.358;2024-02-28T01:16:58;26.08;;;15.13;;
72275;SDS011;61204;49.980;8.358;2024-02-28T01:19:24;30.27;;;15.40;;
72275;SDS011;61204;49.980;8.358;2024-02-28T01:21:52;30.00;;;15.48;;
72275;SDS011;61204;49.980;8.358;2024-02-28T01:24:17;31.67;;;17.05;;
72275;SDS011;61204;49.980;8.358;2024-02-28T01:26:43;31.40;;;16.23;;
72275;SDS011;61204;49.980;8.358;2024-02-28T01:29:08;32.08;;;17.55;;
72275;SDS011;61204;49.980;8.358;2024-02-28T01:31:34;29.23;;;15.80;;
72275;SDS011;61204;49.980;8.358;2024-02-28T01:34:00;30.50;;;15.75;;
72275;SDS011;61204;49.980;8.358;2024-02-28T01:36:25;26.83;;;15.32;;
72275;SDS011;61204;49.980;8.358;2024-02-28T01:38:51;27.63;;;15.05;;
72275;SDS011;61204;49.980;8.358;2024-02-28T01:41:17;27.67;;;16.13;;
72275;SDS011;61204;49.980;8.358;2024-02-28T01:43:43;27.48;;;15.20;;
72275;SDS011;61204;49.980;8.358;2024-02-28T01:46:27;26.88;;;14.68;;
72275;SDS011;61204;49.980;8.358;2024-02-28T01:48:54;27.60;;;15.02;;
72275;SDS011;61204;49.980;8.358;2024-02-28T01:51:22;28.13;;;15.38;;
72275;SDS011;61204;49.980;8.358;2024-02-28T01:53:54;28.13;;;16.00;;
72275;SDS011;61204;49.980;8.358;2024-02-28T01:56:22;27.77;;;16.15;;
72275;SDS011;61204;49.980;8.358;2024-02-28T01:58:51;25.90;;;15.45;;
72275;SDS011;61204;49.980;8.358;2024-02-28T02:01:20;28.95;;;16.50;;
72275;SDS011;61204;49.980;8.358;2024-02-28T02:03:45;27.13;;;15.90;;
72275;SDS011;61204;49.980;8.358;2024-02-28T02:06:11;29.88;;;16.08;;
72275;SDS011;61204;49.980;8.358;2024-02-28T02:08:37;32.80;;;16.73;;
72275;SDS011;61204;49.980;8.358;2024-02-28T02:11:06;34.22;;;15.93;;
72275;SDS011;61204;49.980;8.358;2024-02-28T02:13:32;31.23;;;17.65;;
72275;SDS011;61204;49.980;8.358;2024-02-28T02:16:00;29.55;;;15.82;;
72275;SDS011;61204;49.980;8.358;2024-02-28T02:18:27;31.33;;;17.27;;
72275;SDS011;61204;49.980;8.358;2024-02-28T02:20:54;33.60;;;17.50;;
72275;SDS011;61204;49.980;8.358;2024-02-28T02:23:30;35.75;;;17.98;;
72275;SDS011;61204;49.980;8.358;2024-02-28T02:25:58;33.17;;;18.48;;
72275;SDS011;61204;49.980;8.358;2024-02-28T02:28:24;32.20;;;17.92;;
72275;SDS011;61204;49.980;8.358;2024-02-28T02:30:49;40.40;;;21.30;;
72275;SDS011;61204;49.980;8.358;2024-02-28T02:33:15;36.33;;;19.80;;
72275;SDS011;61204;49.980;8.358;2024-02-28T02:35:40;35.85;;;20.00;;
72275;SDS011;61204;49.980;8.358;2024-02-28T02:38:06;36.47;;;19.70;;
72275;SDS011;61204;49.980;8.358;2024-02-28T02:40:31;40.45;;;20.52;;
72275;SDS011;61204;49.980;8.358;2024-02-28T02:42:57;41.03;;;20.95;;
72275;SDS011;61204;49.980;8.358;2024-02-28T02:45:23;42.03;;;20.42;;
72275;SDS011;61204;49.980;8.358;2024-02-28T02:47:50;44.30;;;22.83;;
72275;SDS011;61204;49.980;8.358;2024-02-28T02:50:16;43.50;;;22.63;;
72275;SDS011;61204;49.980;8.358;2024-02-28T02:52:41;43.30;;;23.33;;
72275;SDS011;61204;49.980;8.358;2024-02-28T02:55:07;42.28;;;21.95;;
72275;SDS011;61204;49.980;8.358;2024-02-28T02:57:35;48.63;;;23.33;;
72275;SDS011;61204;49.980;8.358;2024-02-28T03:00:05;47.22;;;22.70;;
72275;SDS011;61204;49.980;8.358;2024-02-28T03:02:34;47.22;;;23.58;;
72275;SDS011;61204;49.980;8.358;2024-02-28T03:05:03;49.28;;;23.88;;
72275;SDS011;61204;49.980;8.358;2024-02-28T03:07:30;49.72;;;23.27;;
72275;SDS011;61204;49.980;8.358;2024-02-28T03:09:58;49.95;;;22.48;;
72275;SDS011;61204;49.980;8.358;2024-02-28T03:12:26;51.08;;;24.80;;
72275;SDS011;61204;49.980;8.358;2024-02-28T03:14:54;52.95;;;24.77;;
72275;SDS011;61204;49.980;8.358;2024-02-28T03:17:21;46.88;;;22.80;;
72275;SDS011;61204;49.980;8.358;2024-02-28T03:19:47;52.13;;;24.63;;
72275;SDS011;61204;49.980;8.358;2024-02-28T03:22:13;48.70;;;24.35;;
72275;SDS011;61204;49.980;8.358;2024-02-28T03:24:39;46.75;;;22.85;;
72275;SDS011;61204;49.980;8.358;2024-02-28T03:27:07;46.80;;;23.13;;
72275;SDS011;61204;49.980;8.358;2024-02-28T03:29:33;52.30;;;24.75;;
72275;SDS011;61204;49.980;8.358;2024-02-28T03:31:59;44.08;;;22.67;;
72275;SDS011;61204;49.980;8.358;2024-02-28T03:34:24;47.33;;;24.83;;
72275;SDS011;61204;49.980;8.358;2024-02-28T03:36:50;49.33;;;23.08;;
72275;SDS011;61204;49.980;8.358;2024-02-28T03:39:16;43.92;;;21.88;;
72275;SDS011;61204;49.980;8.358;2024-02-28T03:41:42;49.38;;;22.92;;
72275;SDS011;61204;49.980;8.358;2024-02-28T03:44:07;48.25;;;23.55;;
72275;SDS011;61204;49.980;8.358;2024-02-28T03:46:36;48.53;;;22.98;;
72275;SDS011;61204;49.980;8.358;2024-02-28T03:49:04;51.05;;;23.40;;
72275;SDS011;61204;49.980;8.358;2024-02-28T03:51:38;45.15;;;23.27;;
72275;SDS011;61204;49.980;8.358;2024-02-28T03:54:09;42.20;;;21.75;;
72275;SDS011;61204;49.980;8.358;2024-02-28T03:56:35;46.35;;;23.75;;
72275;SDS011;61204;49.980;8.358;2024-02-28T03:59:01;50.28;;;23.80;;
72275;SDS011;61204;49.980;8.358;2024-02-28T04:01:29;49.63;;;22.98;;
72275;SDS011;61204;49.980;8.358;2024-02-28T04:03:55;46.75;;;22.17;;
72275;SDS011;61204;49.980;8.358;2024-02-28T04:06:21;50.25;;;22.90;;
72275;SDS011;61204;49.980;8.358;2024-02-28T04:08:46;52.78;;;24.02;;
72275;SDS011;61204;49.980;8.358;2024-02-28T04:11:14;47.55;;;21.92;;
72275;SDS011;61204;49.980;8.358;2024-02-28T04:13:40;50.75;;;24.13;;
72275;SDS011;61204;49.980;8.358;2024-02-28T04:16:07;53.83;;;23.08;;
72275;SDS011;61204;49.980;8.358;2024-02-28T04:18:34;47.10;;;22.27;;
72275;SDS011;61204;49.980;8.358;2024-02-28T04:21:00;51.92;;;24.77;;
72275;SDS011;61204;49.980;8.358;2024-02-28T04:23:28;56.90;;;24.00;;
72275;SDS011;61204;49.980;8.358;2024-02-28T04:25:54;54.63;;;23.55;;
72275;SDS011;61204;49.980;8.358;2024-02-28T04:28:19;53.33;;;23.02;;
72275;SDS011;61204;49.980;8.358;2024-02-28T04:30:45;47.65;;;22.77;;
72275;SDS011;61204;49.980;8.358;2024-02-28T04:33:10;48.97;;;23.52;;
72275;SDS011;61204;49.980;8.358;2024-02-28T04:35:36;52.30;;;23.98;;
72275;SDS011;61204;49.980;8.358;2024-02-28T04:38:04;54.40;;;23.98;;
72275;SDS011;61204;49.980;8.358;2024-02-28T04:40:32;50.35;;;23.23;;
72275;SDS011;61204;49.980;8.358;2024-02-28T04:42:57;50.08;;;23.05;;
72275;SDS011;61204;49.980;8.358;2024-02-28T04:45:25;50.80;;;21.55;;
72275;SDS011;61204;49.980;8.358;2024-02-28T04:47:51;48.65;;;21.15;;
72275;SDS011;61204;49.980;8.358;2024-02-28T04:50:17;53.85;;;24.38;;
72275;SDS011;61204;49.980;8.358;2024-02-28T04:52:43;51.88;;;20.92;;
72275;SDS011;61204;49.980;8.358;2024-02-28T04:55:13;48.22;;;21.20;;
72275;SDS011;61204;49.980;8.358;2024-02-28T04:57:39;51.35;;;21.52;;
72275;SDS011;61204;49.980;8.358;2024-02-28T05:00:05;52.80;;;23.55;;
72275;SDS011;61204;49.980;8.358;2024-02-28T05:02:33;45.90;;;21.67;;
72275;SDS011;61204;49.980;8.358;2024-02-28T05:04:59;48.33;;;22.30;;
72275;SDS011;61204;49.980;8.358;2024-02-28T05:07:25;49.30;;;21.35;;
72275;SDS011;61204;49.980;8.358;2024-02-28T05:09:50;52.35;;;23.08;;
72275;SDS011;61204;49.980;8.358;2024-02-28T05:12:16;54.33;;;22.63;;
72275;SDS011;61204;49.980;8.358;2024-02-28T05:14:42;47.88;;;21.05;;
72275;SDS011;61204;49.980;8.358;2024-02-28T05:17:12;51.67;;;21.05;;
72275;SDS011;61204;49.980;8.358;2024-02-28T05:19:38;49.60;;;20.92;;
72275;SDS011;61204;49.980;8.358;2024-02-28T05:22:07;43.72;;;20.48;;
72275;SDS011;61204;49.980;8.358;2024-02-28T05:24:32;45.15;;;20.38;;
72275;SDS011;61204;49.980;8.358;2024-02-28T05:26:58;49.63;;;21.00;;
72275;SDS011;61204;49.980;8.358;2024-02-28T05:29:24;48.75;;;21.30;;
72275;SDS011;61204;49.980;8.358;2024-02-28T05:31:53;45.83;;;20.40;;
72275;SDS011;61204;49.980;8.358;2024-02-28T05:34:21;46.67;;;19.92;;
72275;SDS011;61204;49.980;8.358;2024-02-28T05:36:47;52.63;;;22.60;;
72275;SDS011;61204;49.980;8.358;2024-02-28T05:39:13;46.35;;;20.08;;
72275;SDS011;61204;49.980;8.358;2024-02-28T05:41:39;50.30;;;21.60;;
72275;SDS011;61204;49.980;8.358;2024-02-28T05:44:05;53.80;;;21.33;;
72275;SDS011;61204;49.980;8.358;2024-02-28T05:46:30;50.55;;;22.17;;
72275;SDS011;61204;49.980;8.358;2024-02-28T05:48:56;48.53;;;20.83;;
72275;SDS011;61204;49.980;8.358;2024-02-28T05:51:21;45.45;;;20.65;;
72275;SDS011;61204;49.980;8.358;2024-02-28T05:53:47;52.78;;;21.23;;
72275;SDS011;61204;49.980;8.358;2024-02-28T05:56:13;46.88;;;20.15;;
72275;SDS011;61204;49.980;8.358;2024-02-28T05:58:45;51.83;;;20.52;;
72275;SDS011;61204;49.980;8.358;2024-02-28T06:01:16;43.95;;;20.42;;
72275;SDS011;61204;49.980;8.358;2024-02-28T06:03:44;49.55;;;20.33;;
72275;SDS011;61204;49.980;8.358;2024-02-28T06:06:12;43.35;;;20.23;;
72275;SDS011;61204;49.980;8.358;2024-02-28T06:08:41;56.88;;;22.33;;
72275;SDS011;61204;49.980;8.358;2024-02-28T06:11:08;47.00;;;20.52;;
72275;SDS011;61204;49.980;8.358;2024-02-28T06:13:34;50.97;;;21.23;;
72275;SDS011;61204;49.980;8.358;2024-02-28T06:16:01;48.97;;;20.05;;
72275;SDS011;61204;49.980;8.358;2024-02-28T06:18:28;44.08;;;19.40;;
72275;SDS011;61204;49.980;8.358;2024-02-28T06:20:58;53.05;;;20.85;;
72275;SDS011;61204;49.980;8.358;2024-02-28T06:23:24;47.22;;;20.27;;
72275;SDS011;61204;49.980;8.358;2024-02-28T06:25:50;45.13;;;19.35;;
72275;SDS011;61204;49.980;8.358;2024-02-28T06:28:16;44.47;;;18.65;;
72275;SDS011;61204;49.980;8.358;2024-02-28T06:30:43;54.53;;;20.25;;
72275;SDS011;61204;49.980;8.358;2024-02-28T06:33:12;48.55;;;18.52;;
72275;SDS011;61204;49.980;8.358;2024-02-28T06:35:40;46.70;;;19.55;;
72275;SDS011;61204;49.980;8.358;2024-02-28T06:38:06;50.38;;;20.05;;
72275;SDS011;61204;49.980;8.358;2024-02-28T06:40:32;44.30;;;18.35;;
72275;SDS011;61204;49.980;8.358;2024-02-28T06:42:59;44.47;;;19.20;;
72275;SDS011;61204;49.980;8.358;2024-02-28T06:45:26;47.50;;;19.85;;
72275;SDS011;61204;49.980;8.358;2024-02-28T06:47:52;47.53;;;19.65;;
72275;SDS011;61204;49.980;8.358;2024-02-28T06:50:17;46.17;;;19.38;;
72275;SDS011;61204;49.980;8.358;2024-02-28T06:52:43;40.65;;;17.95;;
72275;SDS011;61204;49.980;8.358;2024-02-28T06:55:09;38.40;;;17.92;;
72275;SDS011;61204;49.980;8.358;2024-02-28T06:57:39;44.00;;;18.27;;
72275;SDS011;61204;49.980;8.358;2024-02-28T07:00:08;37.97;;;17.85;;
72275;SDS011;61204;49.980;8.358;2024-02-28T07:02:39;42.55;;;18.15;;
72275;SDS011;61204;49.980;8.358;2024-02-28T07:05:05;41.47;;;19.10;;
72275;SDS011;61204;49.980;8.358;2024-02-28T07:07:34;37.30;;;16.80;;
72275;SDS011;61204;49.980;8.358;2024-02-28T07:09:59;35.85;;;16.33;;
72275;SDS011;61204;49.980;8.358;2024-02-28T07:12:27;40.28;;;16.83;;
72275;SDS011;61204;49.980;8.358;2024-02-28T07:14:53;38.38;;;16.42;;
72275;SDS011;61204;49.980;8.358;2024-02-28T07:17:20;40.25;;;17.95;;
72275;SDS011;61204;49.980;8.358;2024-02-28T07:19:45;40.67;;;17.58;;
72275;SDS011;61204;49.980;8.358;2024-02-28T07:22:13;35.15;;;17.13;;
72275;SDS011;61204;49.980;8.358;2024-02-28T07:24:41;37.42;;;16.95;;
72275;SDS011;61204;49.980;8.358;2024-02-28T07:27:07;37.60;;;16.77;;
72275;SDS011;61204;49.980;8.358;2024-02-28T07:29:33;37.25;;;17.55;;
72275;SDS011;61204;49.980;8.358;2024-02-28T07:31:59;42.75;;;18.70;;
72275;SDS011;61204;49.980;8.358;2024-02-28T07:34:27;40.72;;;17.92;;
72275;SDS011;61204;49.980;8.358;2024-02-28T07:36:53;38.70;;;16.90;;
72275;SDS011;61204;49.980;8.358;2024-02-28T07:39:18;33.00;;;15.93;;
72275;SDS011;61204;49.980;8.358;2024-02-28T07:41:45;37.00;;;16.33;;
72275;SDS011;61204;49.980;8.358;2024-02-28T07:44:11;33.25;;;16.48;;
72275;SDS011;61204;49.980;8.358;2024-02-28T07:46:40;35.17;;;15.65;;
72275;SDS011;61204;49.980;8.358;2024-02-28T07:49:07;35.50;;;16.38;;
72275;SDS011;61204;49.980;8.358;2024-02-28T07:51:33;33.28;;;15.00;;
72275;SDS011;61204;49.980;8.358;2024-02-28T07:53:59;33.40;;;16.08;;
72275;SDS011;61204;49.980;8.358;2024-02-28T07:56:24;39.15;;;16.70;;
72275;SDS011;61204;49.980;8.358;2024-02-28T07:58:50;32.85;;;16.35;;
72275;SDS011;61204;49.980;8.358;2024-02-28T08:01:18;32.45;;;14.65;;
72275;SDS011;61204;49.980;8.358;2024-02-28T08:03:44;35.40;;;15.88;;
72275;SDS011;61204;49.980;8.358;2024-02-28T08:06:10;29.67;;;14.40;;
72275;SDS011;61204;49.980;8.358;2024-02-28T08:08:35;32.72;;;14.18;;
72275;SDS011;61204;49.980;8.358;2024-02-28T08:11:01;36.42;;;17.08;;
72275;SDS011;61204;49.980;8.358;2024-02-28T08:13:28;30.40;;;14.50;;
72275;SDS011;61204;49.980;8.358;2024-02-28T08:15:54;28.15;;;13.70;;
72275;SDS011;61204;49.980;8.358;2024-02-28T08:18:20;32.08;;;15.35;;
72275;SDS011;61204;49.980;8.358;2024-02-28T08:20:46;32.28;;;14.30;;
72275;SDS011;61204;49.980;8.358;2024-02-28T08:23:12;29.10;;;15.02;;
72275;SDS011;61204;49.980;8.358;2024-02-28T08:25:38;29.58;;;15.23;;
72275;SDS011;61204;49.980;8.358;2024-02-28T08:28:03;29.00;;;14.77;;
72275;SDS011;61204;49.980;8.358;2024-02-28T08:30:29;28.23;;;13.75;;
72275;SDS011;61204;49.980;8.358;2024-02-28T08:32:56;26.83;;;13.93;;
72275;SDS011;61204;49.980;8.358;2024-02-28T08:35:23;27.67;;;13.15;;
72275;SDS011;61204;49.980;8.358;2024-02-28T08:37:48;26.77;;;14.18;;
72275;SDS011;61204;49.980;8.358;2024-02-28T08:40:14;25.77;;;12.25;;
72275;SDS011;61204;49.980;8.358;2024-02-28T08:42:40;23.05;;;13.00;;
72275;SDS011;61204;49.980;8.358;2024-02-28T08:45:08;26.38;;;13.57;;
72275;SDS011;61204;49.980;8.358;2024-02-28T08:47:34;30.48;;;13.98;;
72275;SDS011;61204;49.980;8.358;2024-02-28T08:50:00;25.17;;;12.88;;
72275;SDS011;61204;49.980;8.358;2024-02-28T08:52:26;25.63;;;13.07;;
72275;SDS011;61204;49.980;8.358;2024-02-28T08:54:51;25.27;;;12.93;;
72275;SDS011;61204;49.980;8.358;2024-02-28T08:57:18;24.92;;;13.45;;
72275;SDS011;61204;49.980;8.358;2024-02-28T08:59:48;25.98;;;13.82;;
72275;SDS011;61204;49.980;8.358;2024-02-28T09:02:14;24.58;;;13.52;;
72275;SDS011;61204;49.980;8.358;2024-02-28T09:04:40;25.05;;;13.93;;
72275;SDS011;61204;49.980;8.358;2024-02-28T09:07:06;23.00;;;13.13;;
72275;SDS011;61204;49.980;8.358;2024-02-28T09:09:31;22.95;;;13.75;;
72275;SDS011;61204;49.980;8.358;2024-02-28T09:12:01;26.38;;;12.30;;
72275;SDS011;61204;49.980;8.358;2024-02-28T09:14:28;25.92;;;13.50;;
72275;SDS011;61204;49.980;8.358;2024-02-28T09:16:53;26.35;;;13.50;;
72275;SDS011;61204;49.980;8.358;2024-02-28T09:19:25;24.30;;;13.07;;
72275;SDS011;61204;49.980;8.358;2024-02-28T09:21:52;25.35;;;12.68;;
72275;SDS011;61204;49.980;8.358;2024-02-28T09:24:17;22.95;;;12.15;;
72275;SDS011;61204;49.980;8.358;2024-02-28T09:26:45;22.17;;;12.07;;
72275;SDS011;61204;49.980;8.358;2024-02-28T09:29:11;23.08;;;11.95;;
72275;SDS011;61204;49.980;8.358;2024-02-28T09:31:36;22.50;;;12.88;;
72275;SDS011;61204;49.980;8.358;2024-02-28T09:34:02;25.80;;;13.32;;
72275;SDS011;61204;49.980;8.358;2024-02-28T09:36:32;24.35;;;12.65;;
72275;SDS011;61204;49.980;8.358;2024-02-28T09:39:06;23.67;;;12.63;;
72275;SDS011;61204;49.980;8.358;2024-02-28T09:41:31;19.85;;;12.25;;
72275;SDS011;61204;49.980;8.358;2024-02-28T09:43:57;22.52;;;13.05;;
72275;SDS011;61204;49.980;8.358;2024-02-28T09:46:25;22.20;;;12.82;;
72275;SDS011;61204;49.980;8.358;2024-02-28T09:48:51;23.08;;;13.02;;
72275;SDS011;61204;49.980;8.358;2024-02-28T09:51:21;20.73;;;11.98;;
72275;SDS011;61204;49.980;8.358;2024-02-28T09:53:49;20.60;;;11.77;;
72275;SDS011;61204;49.980;8.358;2024-02-28T09:56:16;23.67;;;12.35;;
72275;SDS011;61204;49.980;8.358;2024-02-28T09:58:42;24.17;;;12.48;;
72275;SDS011;61204;49.980;8.358;2024-02-28T10:01:08;22.50;;;12.45;;
72275;SDS011;61204;49.980;8.358;2024-02-28T10:03:39;19.15;;;11.50;;
72275;SDS011;61204;49.980;8.358;2024-02-28T10:06:09;21.17;;;12.43;;
72275;SDS011;61204;49.980;8.358;2024-02-28T10:08:34;20.30;;;11.60;;
72275;SDS011;61204;49.980;8.358;2024-02-28T10:11:02;24.10;;;13.30;;
72275;SDS011;61204;49.980;8.358;2024-02-28T10:13:28;20.70;;;12.18;;
72275;SDS011;61204;49.980;8.358;2024-02-28T10:15:54;19.80;;;12.05;;
72275;SDS011;61204;49.980;8.358;2024-02-28T10:18:19;25.02;;;14.07;;
72275;SDS011;61204;49.980;8.358;2024-02-28T10:20:45;22.17;;;11.52;;
72275;SDS011;61204;49.980;8.358;2024-02-28T10:23:12;22.13;;;12.85;;
72275;SDS011;61204;49.980;8.358;2024-02-28T10:25:56;23.05;;;12.35;;
72275;SDS011;61204;49.980;8.358;2024-02-28T10:28:22;20.75;;;12.73;;
72275;SDS011;61204;49.980;8.358;2024-02-28T10:30:47;21.48;;;12.27;;
72275;SDS011;61204;49.980;8.358;2024-02-28T10:33:14;20.98;;;12.20;;
72275;SDS011;61204;49.980;8.358;2024-02-28T10:35:41;23.25;;;12.90;;
72275;SDS011;61204;49.980;8.358;2024-02-28T10:38:10;22.63;;;12.07;;
72275;SDS011;61204;49.980;8.358;2024-02-28T10:40:40;22.08;;;12.25;;
72275;SDS011;61204;49.980;8.358;2024-02-28T10:43:10;22.27;;;12.40;;
72275;SDS011;61204;49.980;8.358;2024-02-28T10:45:38;20.60;;;12.68;;
72275;SDS011;61204;49.980;8.358;2024-02-28T10:48:04;19.05;;;11.35;;
72275;SDS011;61204;49.980;8.358;2024-02-28T10:50:32;19.83;;;12.10;;
72275;SDS011;61204;49.980;8.358;2024-02-28T10:53:01;18.02;;;11.32;;
72275;SDS011;61204;49.980;8.358;2024-02-28T10:55:33;19.77;;;11.82;;
72275;SDS011;61204;49.980;8.358;2024-02-28T10:58:08;19.03;;;11.47;;
72275;SDS011;61204;49.980;8.358;2024-02-28T11:00:39;19.50;;;11.13;;
72275;SDS011;61204;49.980;8.358;2024-02-28T11:03:12;20.42;;;11.23;;
72275;SDS011;61204;49.980;8.358;2024-02-28T11:05:43;21.20;;;11.90;;
72275;SDS011;61204;49.980;8.358;2024-02-28T11:08:26;17.95;;;10.93;;
72275;SDS011;61204;49.980;8.358;2024-02-28T11:11:03;25.17;;;13.00;;
72275;SDS011;61204;49.980;8.358;2024-02-28T11:13:29;23.23;;;12.60;;
72275;SDS011;61204;49.980;8.358;2024-02-28T11:16:08;22.33;;;11.93;;
72275;SDS011;61204;49.980;8.358;2024-02-28T11:18:35;20.67;;;12.30;;
72275;SDS011;61204;49.980;8.358;2024-02-28T11:21:15;17.95;;;10.43;;
72275;SDS011;61204;49.980;8.358;2024-02-28T11:23:42;20.17;;;11.82;;
72275;SDS011;61204;49.980;8.358;2024-02-28T11:26:12;19.27;;;11.05;;
72275;SDS011;61204;49.980;8.358;2024-02-28T11:28:38;19.02;;;12.00;;
72275;SDS011;61204;49.980;8.358;2024-02-28T11:31:06;17.33;;;10.38;;
72275;SDS011;61204;49.980;8.358;2024-02-28T11:33:33;16.15;;;9.88;;
72275;SDS011;61204;49.980;8.358;2024-02-28T11:35:58;19.17;;;11.48;;
72275;SDS011;61204;49.980;8.358;2024-02-28T11:38:25;17.65;;;11.13;;
72275;SDS011;61204;49.980;8.358;2024-02-28T11:40:52;18.95;;;11.25;;
72275;SDS011;61204;49.980;8.358;2024-02-28T11:43:20;19.25;;;11.57;;
72275;SDS011;61204;49.980;8.358;2024-02-28T11:45:46;19.65;;;12.15;;
72275;SDS011;61204;49.980;8.358;2024-02-28T11:48:15;20.38;;;11.68;;
72275;SDS011;61204;49.980;8.358;2024-02-28T11:50:42;18.73;;;11.10;;
72275;SDS011;61204;49.980;8.358;2024-02-28T11:53:08;19.80;;;11.02;;
72275;SDS011;61204;49.980;8.358;2024-02-28T11:55:36;19.88;;;11.82;;
72275;SDS011;61204;49.980;8.358;2024-02-28T11:58:07;19.95;;;12.23;;
72275;SDS011;61204;49.980;8.358;2024-02-28T12:00:49;20.58;;;10.25;;
72275;SDS011;61204;49.980;8.358;2024-02-28T12:03:23;19.25;;;10.95;;
72275;SDS011;61204;49.980;8.358;2024-02-28T12:05:50;17.95;;;10.95;;
72275;SDS011;61204;49.980;8.358;2024-02-28T12:08:18;18.90;;;10.23;;
72275;SDS011;61204;49.980;8.358;2024-02-28T12:10:45;15.30;;;9.20;;
72275;SDS011;61204;49.980;8.358;2024-02-28T12:13:16;16.33;;;9.80;;
72275;SDS011;61204;49.980;8.358;2024-02-28T12:15:43;18.63;;;10.02;;
72275;SDS011;61204;49.980;8.358;2024-02-28T12:18:11;17.95;;;9.43;;
72275;SDS011;61204;49.980;8.358;2024-02-28T12:20:36;14.32;;;9.85;;
72275;SDS011;61204;49.980;8.358;2024-02-28T12:23:03;16.23;;;10.27;;
72275;SDS011;61204;49.980;8.358;2024-02-28T12:25:33;15.63;;;9.55;;
72275;SDS011;61204;49.980;8.358;2024-02-28T12:28:01;15.95;;;10.68;;
72275;SDS011;61204;49.980;8.358;2024-02-28T12:30:27;15.63;;;9.25;;
72275;SDS011;61204;49.980;8.358;2024-02-28T12:32:53;15.25;;;9.65;;
72275;SDS011;61204;49.980;8.358;2024-02-28T12:35:19;14.52;;;9.38;;
72275;SDS011;61204;49.980;8.358;2024-02-28T12:37:45;15.38;;;8.82;;
72275;SDS011;61204;49.980;8.358;2024-02-28T12:40:11;13.55;;;8.15;;
72275;SDS011;61204;49.980;8.358;2024-02-28T12:42:39;14.98;;;8.52;;
72275;SDS011;61204;49.980;8.358;2024-02-28T12:45:04;16.02;;;9.00;;
72275;SDS011;61204;49.980;8.358;2024-02-28T12:47:30;14.60;;;9.43;;
72275;SDS011;61204;49.980;8.358;2024-02-28T12:49:56;14.88;;;8.65;;
72275;SDS011;61204;49.980;8.358;2024-02-28T12:52:22;13.50;;;8.43;;
72275;SDS011;61204;49.980;8.358;2024-02-28T12:54:49;14.13;;;7.35;;
72275;SDS011;61204;49.980;8.358;2024-02-28T12:57:15;13.00;;;7.88;;
72275;SDS011;61204;49.980;8.358;2024-02-28T12:59:41;11.10;;;6.45;;
72275;SDS011;61204;49.980;8.358;2024-02-28T13:02:09;11.25;;;7.38;;
72275;SDS011;61204;49.980;8.358;2024-02-28T13:04:35;12.52;;;6.78;;
72275;SDS011;61204;49.980;8.358;2024-02-28T13:07:01;12.85;;;7.38;;
72275;SDS011;61204;49.980;8.358;2024-02-28T13:09:27;12.52;;;7.18;;
72275;SDS011;61204;49.980;8.358;2024-02-28T13:11:55;9.80;;;6.40;;
72275;SDS011;61204;49.980;8.358;2024-02-28T13:14:21;10.30;;;7.07;;
72275;SDS011;61204;49.980;8.358;2024-02-28T13:16:47;9.30;;;4.93;;
72275;SDS011;61204;49.980;8.358;2024-02-28T13:19:13;11.52;;;6.85;;
72275;SDS011;61204;49.980;8.358;2024-02-28T13:21:39;9.82;;;6.45;;
72275;SDS011;61204;49.980;8.358;2024-02-28T13:24:05;9.90;;;5.28;;
72275;SDS011;61204;49.980;8.358;2024-02-28T13:26:30;7.68;;;4.88;;
72275;SDS011;61204;49.980;8.358;2024-02-28T13:28:56;7.85;;;4.82;;
72275;SDS011;61204;49.980;8.358;2024-02-28T13:31:23;8.88;;;5.63;;
72275;SDS011;61204;49.980;8.358;2024-02-28T13:33:49;7.55;;;5.05;;
72275;SDS011;61204;49.980;8.358;2024-02-28T13:36:15;8.52;;;4.70;;
72275;SDS011;61204;49.980;8.358;2024-02-28T13:38:40;8.15;;;5.40;;
72275;SDS011;61204;49.980;8.358;2024-02-28T13:41:06;11.90;;;6.30;;
72275;SDS011;61204;49.980;8.358;2024-02-28T13:43:32;9.57;;;6.50;;
72275;SDS011;61204;49.980;8.358;2024-02-28T13:46:00;10.02;;;5.65;;
72275;SDS011;61204;49.980;8.358;2024-02-28T13:48:26;10.50;;;6.40;;
72275;SDS011;61204;49.980;8.358;2024-02-28T13:50:58;9.35;;;6.07;;
72275;SDS011;61204;49.980;8.358;2024-02-28T13:53:27;10.60;;;6.25;;
72275;SDS011;61204;49.980;8.358;2024-02-28T13:55:55;11.18;;;6.45;;
72275;SDS011;61204;49.980;8.358;2024-02-28T13:58:23;11.93;;;6.68;;
72275;SDS011;61204;49.980;8.358;2024-02-28T14:00:48;7.90;;;5.35;;
72275;SDS011;61204;49.980;8.358;2024-02-28T14:03:16;7.65;;;4.65;;
72275;SDS011;61204;49.980;8.358;2024-02-28T14:05:44;8.48;;;5.35;;
72275;SDS011;61204;49.980;8.358;2024-02-28T14:08:10;11.27;;;6.28;;
72275;SDS011;61204;49.980;8.358;2024-02-28T14:10:37;10.00;;;5.95;;
72275;SDS011;61204;49.980;8.358;2024-02-28T14:13:04;10.38;;;6.75;;
72275;SDS011;61204;49.980;8.358;2024-02-28T14:15:32;12.00;;;6.15;;
72275;SDS011;61204;49.980;8.358;2024-02-28T14:17:58;9.57;;;5.47;;
72275;SDS011;61204;49.980;8.358;2024-02-28T14:20:26;8.70;;;5.60;;
72275;SDS011;61204;49.980;8.358;2024-02-28T14:22:52;7.68;;;5.03;;